sensor_id;sensor_type;location;lat;lon;timestamp;pressure;altitude;pressure_sealevel;temperature;humidity
40992;BME280;29633;49.168;9.848;2023-01-29T00:00:48;97892.09;;;5.68;65.07
40992;BME280;29633;49.168;9.848;2023-01-29T00:03:14;97901.53;;;5.67;64.95
40992;BME280;29633;49.168;9.848;2023-01-29T00:05:40;97899.88;;;5.66;64.97
40992;BME280;29633;49.168;9.848;2023-01-29T00:08:06;97895.63;;;5.65;64.90
40992;BME280;29633;49.168;9.848;2023-01-29T00:10:31;97890.47;;;5.65;64.94
40992;BME280;29633;49.168;9.848;2023-01-29T00:12:57;97889.63;;;5.65;64.98
40992;BME280;29633;49.168;9.848;2023-01-29T00:15:22;97893.03;;;5.65;64.91
40992;BME280;29633;49.168;9.848;2023-01-29T00:17:48;97886.31;;;5.63;65.00
40992;BME280;29633;49.168;9.848;2023-01-29T00:20:14;97887.19;;;5.62;65.02
40992;BME280;29633;49.168;9.848;2023-01-29T00:22:39;97888.91;;;5.61;64.82
40992;BME280;29633;49.168;9.848;2023-01-29T00:25:05;97883.78;;;5.61;64.81
40992;BME280;29633;49.168;9.848;2023-01-29T00:27:31;97887.19;;;5.62;64.90
40992;BME280;29633;49.168;9.848;2023-01-29T00:29:57;97880.38;;;5.61;64.96
40992;BME280;29633;49.168;9.848;2023-01-29T00:32:40;97887.28;;;5.60;64.81
40992;BME280;29633;49.168;9.848;2023-01-29T00:35:07;97881.34;;;5.58;64.79
40992;BME280;29633;49.168;9.848;2023-01-29T00:37:33;97896.78;;;5.58;64.87
40992;BME280;29633;49.168;9.848;2023-01-29T00:39:59;97891.72;;;5.57;64.78
40992;BME280;29633;49.168;9.848;2023-01-29T00:42:24;97889.94;;;5.57;64.92
40992;BME280;29633;49.168;9.848;2023-01-29T00:45:09;97886.63;;;5.55;65.12
40992;BME280;29633;49.168;9.848;2023-01-29T00:47:35;97884.09;;;5.54;64.78
40992;BME280;29633;49.168;9.848;2023-01-29T00:50:04;97889.25;;;5.54;64.86
40992;BME280;29633;49.168;9.848;2023-01-29T00:52:30;97892.78;;;5.51;64.97
40992;BME280;29633;49.168;9.848;2023-01-29T00:54:57;97885.06;;;5.51;64.86
40992;BME280;29633;49.168;9.848;2023-01-29T00:57:25;97883.41;;;5.50;64.87
40992;BME280;29633;49.168;9.848;2023-01-29T00:59:51;97883.47;;;5.49;64.92
40992;BME280;29633;49.168;9.848;2023-01-29T01:02:17;97883.41;;;5.50;64.91
40992;BME280;29633;49.168;9.848;2023-01-29T01:05:02;97880.91;;;5.49;64.87
40992;BME280;29633;49.168;9.848;2023-01-29T01:07:30;97878.38;;;5.47;65.03
40992;BME280;29633;49.168;9.848;2023-01-29T01:09:56;97872.41;;;5.46;64.89
40992;BME280;29633;49.168;9.848;2023-01-29T01:12:40;97875.91;;;5.45;64.94
40992;BME280;29633;49.168;9.848;2023-01-29T01:15:06;97871.66;;;5.44;65.04
40992;BME280;29633;49.168;9.848;2023-01-29T01:17:32;97876.03;;;5.42;64.91
40992;BME280;29633;49.168;9.848;2023-01-29T01:19:58;97876.84;;;5.43;65.08
40992;BME280;29633;49.168;9.848;2023-01-29T01:22:23;97877.78;;;5.42;64.66
40992;BME280;29633;49.168;9.848;2023-01-29T01:24:49;97881.28;;;5.39;64.96
40992;BME280;29633;49.168;9.848;2023-01-29T01:27:15;97882.13;;;5.40;64.98
40992;BME280;29633;49.168;9.848;2023-01-29T01:29:40;97876.97;;;5.40;64.82
40992;BME280;29633;49.168;9.848;2023-01-29T01:32:06;97868.50;;;5.38;64.79
40992;BME280;29633;49.168;9.848;2023-01-29T01:34:32;97868.56;;;5.36;65.04
40992;BME280;29633;49.168;9.848;2023-01-29T01:36:57;97865.16;;;5.36;64.75
40992;BME280;29633;49.168;9.848;2023-01-29T01:39:23;97869.53;;;5.34;64.88
40992;BME280;29633;49.168;9.848;2023-01-29T01:41:50;97868.75;;;5.32;64.75
40992;BME280;29633;49.168;9.848;2023-01-29T01:47:29;97866.25;;;5.30;64.74
40992;BME280;29633;49.168;9.848;2023-01-29T01:50:00;97865.41;;;5.30;64.72
40992;BME280;29633;49.168;9.848;2023-01-29T01:52:28;97876.53;;;5.30;65.20
40992;BME280;29633;49.168;9.848;2023-01-29T01:54:55;97879.09;;;5.30;64.75
40992;BME280;29633;49.168;9.848;2023-01-29T01:57:22;97880.91;;;5.28;64.71
40992;BME280;29633;49.168;9.848;2023-01-29T01:59:56;97880.00;;;5.29;64.97
40992;BME280;29633;49.168;9.848;2023-01-29T02:02:24;97879.94;;;5.31;64.71
40992;BME280;29633;49.168;9.848;2023-01-29T02:05:09;97879.16;;;5.29;64.64
40992;BME280;29633;49.168;9.848;2023-01-29T02:07:55;97872.38;;;5.28;64.84
40992;BME280;29633;49.168;9.848;2023-01-29T02:10:46;97875.84;;;5.27;64.89
40992;BME280;29633;49.168;9.848;2023-01-29T02:13:11;97880.09;;;5.28;64.85
40992;BME280;29633;49.168;9.848;2023-01-29T02:15:40;97881.81;;;5.27;64.88
40992;BME280;29633;49.168;9.848;2023-01-29T02:18:07;97882.56;;;5.29;64.68
40992;BME280;29633;49.168;9.848;2023-01-29T02:20:33;97881.81;;;5.27;64.87
40992;BME280;29633;49.168;9.848;2023-01-29T02:39:27;97870.13;;;5.20;64.87
40992;BME280;29633;49.168;9.848;2023-01-29T02:42:34;97861.00;;;5.13;64.94
40992;BME280;29633;49.168;9.848;2023-01-29T02:45:21;97858.47;;;5.12;65.05
40992;BME280;29633;49.168;9.848;2023-01-29T02:47:56;97854.22;;;5.11;64.96
40992;BME280;29633;49.168;9.848;2023-01-29T02:50:49;97846.59;;;5.09;64.89
40992;BME280;29633;49.168;9.848;2023-01-29T02:53:23;97854.22;;;5.11;64.83
40992;BME280;29633;49.168;9.848;2023-01-29T02:56:16;97854.31;;;5.09;64.76
40992;BME280;29633;49.168;9.848;2023-01-29T02:58:46;97856.91;;;5.08;64.74
40992;BME280;29633;49.168;9.848;2023-01-29T03:01:17;97848.44;;;5.06;64.65
40992;BME280;29633;49.168;9.848;2023-01-29T03:03:48;97861.16;;;5.09;64.62
40992;BME280;29633;49.168;9.848;2023-01-29T03:06:49;97868.88;;;5.09;64.63
40992;BME280;29633;49.168;9.848;2023-01-29T03:09:41;97864.63;;;5.08;64.69
40992;BME280;29633;49.168;9.848;2023-01-29T03:12:19;97866.44;;;5.06;64.76
40992;BME280;29633;49.168;9.848;2023-01-29T03:15:00;97866.44;;;5.06;64.83
40992;BME280;29633;49.168;9.848;2023-01-29T03:17:39;97869.91;;;5.05;64.76
40992;BME280;29633;49.168;9.848;2023-01-29T03:20:07;97867.34;;;5.05;64.67
40992;BME280;29633;49.168;9.848;2023-01-29T03:22:37;97866.44;;;5.06;64.50
40992;BME280;29633;49.168;9.848;2023-01-29T03:25:04;97861.34;;;5.04;64.72
40992;BME280;29633;49.168;9.848;2023-01-29T03:27:58;97861.31;;;5.06;64.81
40992;BME280;29633;49.168;9.848;2023-01-29T03:30:51;97873.34;;;5.04;64.85
40992;BME280;29633;49.168;9.848;2023-01-29T03:33:46;97872.47;;;5.05;64.57
40992;BME280;29633;49.168;9.848;2023-01-29T03:36:22;97870.78;;;5.04;64.61
40992;BME280;29633;49.168;9.848;2023-01-29T03:38:51;97865.66;;;5.04;64.75
40992;BME280;29633;49.168;9.848;2023-01-29T03:41:27;97865.59;;;5.05;64.59
40992;BME280;29633;49.168;9.848;2023-01-29T03:46:45;97873.31;;;5.05;64.71
40992;BME280;29633;49.168;9.848;2023-01-29T03:49:32;97871.56;;;5.06;64.67
40992;BME280;29633;49.168;9.848;2023-01-29T03:52:04;97867.28;;;5.06;64.61
40992;BME280;29633;49.168;9.848;2023-01-29T03:57:36;97869.91;;;5.05;64.84
40992;BME280;29633;49.168;9.848;2023-01-29T04:00:18;97860.50;;;5.04;64.81
40992;BME280;29633;49.168;9.848;2023-01-29T04:05:20;97863.03;;;5.05;64.65
40992;BME280;29633;49.168;9.848;2023-01-29T04:07:47;97872.41;;;5.06;64.64
40992;BME280;29633;49.168;9.848;2023-01-29T04:10:18;97874.19;;;5.04;64.64
40992;BME280;29633;49.168;9.848;2023-01-29T04:12:48;97874.19;;;5.04;64.62
40992;BME280;29633;49.168;9.848;2023-01-29T04:15:15;97867.34;;;5.05;64.94
40992;BME280;29633;49.168;9.848;2023-01-29T04:17:44;97874.28;;;5.03;64.67
40992;BME280;29633;49.168;9.848;2023-01-29T04:20:13;97883.63;;;5.04;64.68
40992;BME280;29633;49.168;9.848;2023-01-29T04:22:39;97883.63;;;5.04;64.55
40992;BME280;29633;49.168;9.848;2023-01-29T04:25:10;97884.47;;;5.04;64.57
40992;BME280;29633;49.168;9.848;2023-01-29T04:28:06;97878.50;;;5.04;64.83
40992;BME280;29633;49.168;9.848;2023-01-29T04:30:59;97875.09;;;5.03;64.61
40992;BME280;29633;49.168;9.848;2023-01-29T04:33:41;97879.47;;;5.01;64.75
40992;BME280;29633;49.168;9.848;2023-01-29T04:39:27;97886.41;;;4.99;64.64
40992;BME280;29633;49.168;9.848;2023-01-29T04:44:42;97896.69;;;4.99;64.66
40992;BME280;29633;49.168;9.848;2023-01-29T04:47:26;97891.66;;;4.96;64.55
40992;BME280;29633;49.168;9.848;2023-01-29T04:50:15;97893.41;;;4.95;64.75
40992;BME280;29633;49.168;9.848;2023-01-29T05:00:49;97887.59;;;4.90;64.58
40992;BME280;29633;49.168;9.848;2023-01-29T05:03:17;97878.19;;;4.91;64.68
40992;BME280;29633;49.168;9.848;2023-01-29T05:05:45;97875.53;;;4.92;64.68
40992;BME280;29633;49.168;9.848;2023-01-29T05:08:15;97872.06;;;4.93;64.51
40992;BME280;29633;49.168;9.848;2023-01-29T05:10:41;97863.53;;;4.93;64.64
40992;BME280;29633;49.168;9.848;2023-01-29T05:13:09;97866.94;;;4.93;64.83
40992;BME280;29633;49.168;9.848;2023-01-29T05:15:39;97882.34;;;4.93;64.52
40992;BME280;29633;49.168;9.848;2023-01-29T05:18:07;97875.53;;;4.92;64.57
40992;BME280;29633;49.168;9.848;2023-01-29T05:20:35;97884.03;;;4.94;64.59
40992;BME280;29633;49.168;9.848;2023-01-29T05:23:02;97872.06;;;4.93;64.52
40992;BME280;29633;49.168;9.848;2023-01-29T05:25:30;97873.75;;;4.94;64.60
40992;BME280;29633;49.168;9.848;2023-01-29T05:27:56;97874.50;;;4.96;64.37
40992;BME280;29633;49.168;9.848;2023-01-29T05:30:32;97869.38;;;4.96;64.62
40992;BME280;29633;49.168;9.848;2023-01-29T05:32:58;97869.44;;;4.95;64.63
40992;BME280;29633;49.168;9.848;2023-01-29T05:35:24;97872.06;;;4.93;64.56
40992;BME280;29633;49.168;9.848;2023-01-29T05:37:50;97858.47;;;4.91;64.46
40992;BME280;29633;49.168;9.848;2023-01-29T05:40:16;97847.34;;;4.91;64.75
40992;BME280;29633;49.168;9.848;2023-01-29T05:42:41;97832.78;;;4.91;64.59
40992;BME280;29633;49.168;9.848;2023-01-29T05:45:07;97825.06;;;4.91;64.64
40992;BME280;29633;49.168;9.848;2023-01-29T05:47:33;97827.56;;;4.93;64.59
40992;BME280;29633;49.168;9.848;2023-01-29T05:49:59;97825.81;;;4.93;64.52
40992;BME280;29633;49.168;9.848;2023-01-29T05:52:24;97824.09;;;4.94;64.58
40992;BME280;29633;49.168;9.848;2023-01-29T05:54:50;97833.53;;;4.93;64.55
40992;BME280;29633;49.168;9.848;2023-01-29T05:57:15;97830.97;;;4.93;64.55
40992;BME280;29633;49.168;9.848;2023-01-29T05:59:41;97838.72;;;4.92;64.55
40992;BME280;29633;49.168;9.848;2023-01-29T06:02:07;97840.47;;;4.91;64.63
40992;BME280;29633;49.168;9.848;2023-01-29T06:04:32;97837.91;;;4.91;64.42
40992;BME280;29633;49.168;9.848;2023-01-29T06:06:58;97837.91;;;4.91;64.39
40992;BME280;29633;49.168;9.848;2023-01-29T06:09:24;97841.28;;;4.92;64.47
40992;BME280;29633;49.168;9.848;2023-01-29T06:11:50;97842.13;;;4.92;64.32
40992;BME280;29633;49.168;9.848;2023-01-29T06:14:15;97845.63;;;4.91;64.59
40992;BME280;29633;49.168;9.848;2023-01-29T06:16:41;97845.63;;;4.91;64.73
40992;BME280;29633;49.168;9.848;2023-01-29T06:19:07;97833.66;;;4.90;64.38
40992;BME280;29633;49.168;9.848;2023-01-29T06:21:32;97833.78;;;4.87;64.46
40992;BME280;29633;49.168;9.848;2023-01-29T06:23:58;97828.13;;;4.79;64.61
40992;BME280;29633;49.168;9.848;2023-01-29T06:26:23;97843.78;;;4.73;64.77
40992;BME280;29633;49.168;9.848;2023-01-29T06:28:49;97851.41;;;4.75;64.62
40992;BME280;29633;49.168;9.848;2023-01-29T06:31:15;97842.81;;;4.76;64.77
40992;BME280;29633;49.168;9.848;2023-01-29T06:33:41;97842.81;;;4.76;64.53
40992;BME280;29633;49.168;9.848;2023-01-29T06:36:07;97837.63;;;4.77;64.71
40992;BME280;29633;49.168;9.848;2023-01-29T06:38:32;97843.56;;;4.78;64.52
40992;BME280;29633;49.168;9.848;2023-01-29T06:40:58;97838.53;;;4.76;64.75
40992;BME280;29633;49.168;9.848;2023-01-29T06:43:24;97833.38;;;4.76;64.73
40992;BME280;29633;49.168;9.848;2023-01-29T06:45:51;97841.22;;;4.73;64.70
40992;BME280;29633;49.168;9.848;2023-01-29T06:48:17;97837.84;;;4.71;64.52
40992;BME280;29633;49.168;9.848;2023-01-29T06:50:43;97836.97;;;4.72;64.63
40992;BME280;29633;49.168;9.848;2023-01-29T06:53:09;97848.00;;;4.74;64.53
40992;BME280;29633;49.168;9.848;2023-01-29T06:55:35;97853.97;;;4.75;64.64
40992;BME280;29633;49.168;9.848;2023-01-29T06:58:19;97855.84;;;4.71;64.89
40992;BME280;29633;49.168;9.848;2023-01-29T07:00:45;97855.97;;;4.68;64.92
40992;BME280;29633;49.168;9.848;2023-01-29T07:03:11;97861.84;;;4.70;64.74
40992;BME280;29633;49.168;9.848;2023-01-29T07:05:36;97869.47;;;4.73;64.77
40992;BME280;29633;49.168;9.848;2023-01-29T07:08:02;97872.81;;;4.75;64.39
40992;BME280;29633;49.168;9.848;2023-01-29T07:10:28;97873.59;;;4.77;64.63
40992;BME280;29633;49.168;9.848;2023-01-29T07:12:54;97868.38;;;4.79;64.48
40992;BME280;29633;49.168;9.848;2023-01-29T07:15:19;97871.66;;;4.82;64.46
40992;BME280;29633;49.168;9.848;2023-01-29T07:18:02;97869.88;;;4.84;64.46
40992;BME280;29633;49.168;9.848;2023-01-29T07:20:29;97871.47;;;4.87;64.54
40992;BME280;29633;49.168;9.848;2023-01-29T07:22:55;97874.06;;;4.87;64.35
40992;BME280;29633;49.168;9.848;2023-01-29T07:25:22;97870.50;;;4.89;64.54
40992;BME280;29633;49.168;9.848;2023-01-29T07:27:48;97873.03;;;4.91;64.39
40992;BME280;29633;49.168;9.848;2023-01-29T07:30:14;97884.97;;;4.92;64.39
40992;BME280;29633;49.168;9.848;2023-01-29T07:32:40;97878.94;;;4.93;64.25
40992;BME280;29633;49.168;9.848;2023-01-29T07:35:06;97882.47;;;4.90;64.46
40992;BME280;29633;49.168;9.848;2023-01-29T07:37:32;97884.16;;;4.91;64.55
40992;BME280;29633;49.168;9.848;2023-01-29T07:39:58;97886.59;;;4.94;64.43
40992;BME280;29633;49.168;9.848;2023-01-29T07:42:23;97876.19;;;4.97;64.73
40992;BME280;29633;49.168;9.848;2023-01-29T07:44:49;97880.34;;;5.00;64.53
40992;BME280;29633;49.168;9.848;2023-01-29T07:47:15;97888.00;;;5.02;64.43
40992;BME280;29633;49.168;9.848;2023-01-29T07:49:40;97885.44;;;5.02;64.45
40992;BME280;29633;49.168;9.848;2023-01-29T07:52:06;97883.59;;;5.05;64.42
40992;BME280;29633;49.168;9.848;2023-01-29T07:54:32;97876.84;;;5.03;64.46
40992;BME280;29633;49.168;9.848;2023-01-29T07:56:57;97882.00;;;5.03;64.44
40992;BME280;29633;49.168;9.848;2023-01-29T07:59:23;97887.00;;;5.06;64.49
40992;BME280;29633;49.168;9.848;2023-01-29T08:01:48;97895.47;;;5.08;64.48
40992;BME280;29633;49.168;9.848;2023-01-29T08:04:14;97886.88;;;5.09;64.46
40992;BME280;29633;49.168;9.848;2023-01-29T08:06:40;97884.31;;;5.09;64.55
40992;BME280;29633;49.168;9.848;2023-01-29T08:09:05;97896.31;;;5.08;64.42
40992;BME280;29633;49.168;9.848;2023-01-29T08:11:33;97897.91;;;5.11;64.58
40992;BME280;29633;49.168;9.848;2023-01-29T08:13:58;97901.44;;;5.08;64.56
40992;BME280;29633;49.168;9.848;2023-01-29T08:16:24;97907.56;;;5.06;64.66
40992;BME280;29633;49.168;9.848;2023-01-29T08:18:49;97911.00;;;5.05;64.53
40992;BME280;29633;49.168;9.848;2023-01-29T08:21:15;97912.81;;;5.03;64.81
40992;BME280;29633;49.168;9.848;2023-01-29T08:23:41;97907.69;;;5.03;64.86
40992;BME280;29633;49.168;9.848;2023-01-29T08:26:07;97906.00;;;5.02;64.76
40992;BME280;29633;49.168;9.848;2023-01-29T08:28:33;97912.91;;;5.00;64.78
40992;BME280;29633;49.168;9.848;2023-01-29T08:30:59;97912.22;;;4.96;64.81
40992;BME280;29633;49.168;9.848;2023-01-29T08:33:26;97911.41;;;4.95;64.77
40992;BME280;29633;49.168;9.848;2023-01-29T08:35:53;97907.91;;;4.96;64.88
40992;BME280;29633;49.168;9.848;2023-01-29T08:38:19;97912.13;;;4.99;65.02
40992;BME280;29633;49.168;9.848;2023-01-29T08:40:45;97916.16;;;5.05;64.91
40992;BME280;29633;49.168;9.848;2023-01-29T08:43:11;97912.69;;;5.06;64.94
40992;BME280;29633;49.168;9.848;2023-01-29T08:45:40;97911.72;;;5.08;64.91
40992;BME280;29633;49.168;9.848;2023-01-29T08:48:06;97914.97;;;5.13;64.72
40992;BME280;29633;49.168;9.848;2023-01-29T08:50:32;97916.59;;;5.14;64.67
40992;BME280;29633;49.168;9.848;2023-01-29T08:53:00;97917.53;;;5.13;64.75
40992;BME280;29633;49.168;9.848;2023-01-29T08:55:26;97922.00;;;5.08;64.94
40992;BME280;29633;49.168;9.848;2023-01-29T08:57:53;97925.41;;;5.09;64.74
40992;BME280;29633;49.168;9.848;2023-01-29T09:00:19;97917.72;;;5.09;64.93
40992;BME280;29633;49.168;9.848;2023-01-29T09:02:45;97908.97;;;5.13;64.94
40992;BME280;29633;49.168;9.848;2023-01-29T09:05:10;97914.03;;;5.14;64.69
40992;BME280;29633;49.168;9.848;2023-01-29T09:07:36;97925.16;;;5.15;64.91
40992;BME280;29633;49.168;9.848;2023-01-29T09:10:02;97913.03;;;5.18;64.70
40992;BME280;29633;49.168;9.848;2023-01-29T09:12:27;97920.81;;;5.17;64.76
40992;BME280;29633;49.168;9.848;2023-01-29T09:14:53;97919.25;;;5.13;64.77
40992;BME280;29633;49.168;9.848;2023-01-29T09:17:19;97925.25;;;5.13;64.59
40992;BME280;29633;49.168;9.848;2023-01-29T09:19:44;97938.00;;;5.15;64.85
40992;BME280;29633;49.168;9.848;2023-01-29T09:22:10;97924.41;;;5.13;64.56
40992;BME280;29633;49.168;9.848;2023-01-29T09:24:36;97926.13;;;5.12;64.55
40992;BME280;29633;49.168;9.848;2023-01-29T09:27:01;97923.56;;;5.12;64.64
40992;BME280;29633;49.168;9.848;2023-01-29T09:29:27;97913.53;;;5.06;64.92
40992;BME280;29633;49.168;9.848;2023-01-29T09:31:52;97923.81;;;5.06;64.96
40992;BME280;29633;49.168;9.848;2023-01-29T09:34:18;97922.00;;;5.08;64.66
40992;BME280;29633;49.168;9.848;2023-01-29T09:36:44;97922.00;;;5.08;64.95
40992;BME280;29633;49.168;9.848;2023-01-29T09:39:09;97910.13;;;5.06;64.88
40992;BME280;29633;49.168;9.848;2023-01-29T09:42:07;97905.75;;;5.08;64.85
40992;BME280;29633;49.168;9.848;2023-01-29T09:44:44;97903.13;;;5.09;64.79
40992;BME280;29633;49.168;9.848;2023-01-29T09:47:13;97895.59;;;5.05;64.62
40992;BME280;29633;49.168;9.848;2023-01-29T09:50:01;97894.00;;;5.02;64.46
40992;BME280;29633;49.168;9.848;2023-01-29T09:52:39;97883.91;;;4.97;64.54
40992;BME280;29633;49.168;9.848;2023-01-29T09:55:18;97888.06;;;5.00;64.49
40992;BME280;29633;49.168;9.848;2023-01-29T10:00:33;97876.31;;;4.94;64.59
40992;BME280;29633;49.168;9.848;2023-01-29T10:08:58;97871.91;;;4.76;64.36
40992;BME280;29633;49.168;9.848;2023-01-29T10:11:45;97865.03;;;4.77;64.46
40992;BME280;29633;49.168;9.848;2023-01-29T10:17:24;97879.75;;;4.73;64.21
40992;BME280;29633;49.168;9.848;2023-01-29T10:20:00;97889.75;;;4.79;64.07
40992;BME280;29633;49.168;9.848;2023-01-29T10:25:29;97885.94;;;4.89;64.14
40992;BME280;29633;49.168;9.848;2023-01-29T10:27:57;97883.94;;;4.96;64.26
40992;BME280;29633;49.168;9.848;2023-01-29T10:30:30;97882.78;;;5.03;64.26
40992;BME280;29633;49.168;9.848;2023-01-29T10:33:01;97879.16;;;5.09;64.08
40992;BME280;29633;49.168;9.848;2023-01-29T10:35:32;97879.78;;;5.14;64.17
40992;BME280;29633;49.168;9.848;2023-01-29T10:38:10;97873.56;;;5.19;64.10
40992;BME280;29633;49.168;9.848;2023-01-29T10:40:42;97874.78;;;5.51;63.97
40992;BME280;29633;49.168;9.848;2023-01-29T10:43:39;97887.50;;;5.94;63.62
40992;BME280;29633;49.168;9.848;2023-01-29T10:57:45;97881.94;;;6.60;63.57
40992;BME280;29633;49.168;9.848;2023-01-29T11:00:20;97869.84;;;6.62;63.76
40992;BME280;29633;49.168;9.848;2023-01-29T11:02:48;97872.09;;;6.68;63.97
40992;BME280;29633;49.168;9.848;2023-01-29T11:05:37;97857.97;;;6.76;63.94
40992;BME280;29633;49.168;9.848;2023-01-29T11:08:09;97850.28;;;6.75;63.80
40992;BME280;29633;49.168;9.848;2023-01-29T11:10:40;97854.75;;;6.71;63.95
40992;BME280;29633;49.168;9.848;2023-01-29T11:13:07;97845.50;;;6.67;64.10
40992;BME280;29633;49.168;9.848;2023-01-29T11:15:34;97834.44;;;6.65;64.14
40992;BME280;29633;49.168;9.848;2023-01-29T11:20:31;97822.38;;;6.66;64.25
40992;BME280;29633;49.168;9.848;2023-01-29T11:22:57;97815.97;;;6.74;64.05
40992;BME280;29633;49.168;9.848;2023-01-29T11:25:24;97808.84;;;6.79;64.03
40992;BME280;29633;49.168;9.848;2023-01-29T11:27:59;97813.84;;;6.82;63.99
40992;BME280;29633;49.168;9.848;2023-01-29T11:30:27;97817.28;;;6.83;63.96
40992;BME280;29633;49.168;9.848;2023-01-29T11:33:16;97812.13;;;6.83;63.94
40992;BME280;29633;49.168;9.848;2023-01-29T11:35:43;97814.84;;;6.80;63.89
40992;BME280;29633;49.168;9.848;2023-01-29T11:38:23;97807.47;;;6.72;64.13
40992;BME280;29633;49.168;9.848;2023-01-29T11:40:49;97800.81;;;6.68;64.17
40992;BME280;29633;49.168;9.848;2023-01-29T11:43:28;97787.00;;;6.69;63.88
40992;BME280;29633;49.168;9.848;2023-01-29T11:46:03;97784.28;;;6.72;63.97
40992;BME280;29633;49.168;9.848;2023-01-29T11:51:05;97772.22;;;6.73;63.79
40992;BME280;29633;49.168;9.848;2023-01-29T11:53:43;97779.72;;;6.77;63.85
40992;BME280;29633;49.168;9.848;2023-01-29T11:56:22;97774.03;;;6.88;63.64
40992;BME280;29633;49.168;9.848;2023-01-29T11:58:52;97767.59;;;6.97;63.84
40992;BME280;29633;49.168;9.848;2023-01-29T12:01:28;97768.44;;;6.97;64.04
40992;BME280;29633;49.168;9.848;2023-01-29T12:03:54;97767.06;;;7.07;64.03
40992;BME280;29633;49.168;9.848;2023-01-29T12:06:34;97764.94;;;7.15;63.66
40992;BME280;29633;49.168;9.848;2023-01-29T12:09:03;97765.47;;;7.22;63.78
40992;BME280;29633;49.168;9.848;2023-01-29T12:11:34;97755.06;;;7.23;63.95
40992;BME280;29633;49.168;9.848;2023-01-29T12:14:02;97751.66;;;7.23;64.04
40992;BME280;29633;49.168;9.848;2023-01-29T12:16:38;97747.00;;;7.29;63.93
40992;BME280;29633;49.168;9.848;2023-01-29T12:19:24;97736.88;;;7.42;63.89
40992;BME280;29633;49.168;9.848;2023-01-29T12:22:16;97727.84;;;7.51;64.25
40992;BME280;29633;49.168;9.848;2023-01-29T12:32:52;97706.31;;;7.99;64.00
40992;BME280;29633;49.168;9.848;2023-01-29T12:40:42;97695.63;;;8.05;64.08
40992;BME280;29633;49.168;9.848;2023-01-29T12:43:16;97690.53;;;8.03;64.01
40992;BME280;29633;49.168;9.848;2023-01-29T12:45:44;97685.66;;;7.99;64.11
40992;BME280;29633;49.168;9.848;2023-01-29T12:48:18;97679.16;;;7.91;64.19
40992;BME280;29633;49.168;9.848;2023-01-29T12:50:44;97680.97;;;7.89;64.18
40992;BME280;29633;49.168;9.848;2023-01-29T12:53:24;97680.91;;;7.91;63.95
40992;BME280;29633;49.168;9.848;2023-01-29T12:55:58;97681.81;;;7.90;64.03
40992;BME280;29633;49.168;9.848;2023-01-29T12:58:45;97680.66;;;7.96;64.07
40992;BME280;29633;49.168;9.848;2023-01-29T13:01:14;97672.72;;;7.99;63.84
40992;BME280;29633;49.168;9.848;2023-01-29T13:04:00;97666.38;;;8.04;63.70
40992;BME280;29633;49.168;9.848;2023-01-29T13:06:37;97673.28;;;8.04;63.73
40992;BME280;29633;49.168;9.848;2023-01-29T13:09:07;97669.16;;;8.01;63.66
40992;BME280;29633;49.168;9.848;2023-01-29T13:14:34;97668.53;;;8.12;63.68
40992;BME280;29633;49.168;9.848;2023-01-29T13:19:53;97665.28;;;8.24;64.01
40992;BME280;29633;49.168;9.848;2023-01-29T13:22:26;97659.78;;;8.30;63.82
40992;BME280;29633;49.168;9.848;2023-01-29T13:24:53;97658.75;;;8.32;64.04
40992;BME280;29633;49.168;9.848;2023-01-29T13:27:29;97659.41;;;8.36;64.22
40992;BME280;29633;49.168;9.848;2023-01-29T13:29:55;97650.50;;;8.42;64.35
40992;BME280;29633;49.168;9.848;2023-01-29T13:32:25;97655.41;;;8.46;64.40
40992;BME280;29633;49.168;9.848;2023-01-29T13:34:56;97660.59;;;8.46;64.51
40992;BME280;29633;49.168;9.848;2023-01-29T13:39:53;97660.41;;;8.49;64.46
40992;BME280;29633;49.168;9.848;2023-01-29T13:44:55;97660.41;;;8.49;64.07
40992;BME280;29633;49.168;9.848;2023-01-29T13:47:29;97664.81;;;8.47;64.07
40992;BME280;29633;49.168;9.848;2023-01-29T13:52:45;97670.34;;;8.41;64.22
40992;BME280;29633;49.168;9.848;2023-01-29T13:55:19;97661.75;;;8.40;64.13
40992;BME280;29633;49.168;9.848;2023-01-29T13:57:51;97662.50;;;8.43;63.93
40992;BME280;29633;49.168;9.848;2023-01-29T14:02:48;97656.19;;;8.32;63.96
40992;BME280;29633;49.168;9.848;2023-01-29T14:05:57;97650.50;;;8.26;64.05
40992;BME280;29633;49.168;9.848;2023-01-29T14:08:42;97647.38;;;8.21;63.83
40992;BME280;29633;49.168;9.848;2023-01-29T14:13:37;97639.63;;;8.21;63.66
40992;BME280;29633;49.168;9.848;2023-01-29T14:18:30;97632.88;;;8.18;63.78
40992;BME280;29633;49.168;9.848;2023-01-29T14:20:58;97637.69;;;8.24;63.72
40992;BME280;29633;49.168;9.848;2023-01-29T14:29:22;97623.84;;;8.55;63.84
40992;BME280;29633;49.168;9.848;2023-01-29T14:32:19;97628.13;;;8.70;63.90
40992;BME280;29633;49.168;9.848;2023-01-29T14:34:47;97628.13;;;8.70;64.09
40992;BME280;29633;49.168;9.848;2023-01-29T14:39:52;97634.88;;;8.87;64.17
40992;BME280;29633;49.168;9.848;2023-01-29T14:45:30;97639.19;;;8.86;64.04
40992;BME280;29633;49.168;9.848;2023-01-29T14:48:19;97630.34;;;8.90;63.91
40992;BME280;29633;49.168;9.848;2023-01-29T14:50:43;97636.63;;;8.86;63.96
40992;BME280;29633;49.168;9.848;2023-01-29T14:58:18;97631.94;;;8.79;63.78
40992;BME280;29633;49.168;9.848;2023-01-29T15:00:52;97634.97;;;8.71;63.92
40992;BME280;29633;49.168;9.848;2023-01-29T15:03:40;97638.84;;;8.64;63.89
40992;BME280;29633;49.168;9.848;2023-01-29T15:06:08;97634.41;;;8.66;63.79
40992;BME280;29633;49.168;9.848;2023-01-29T15:08:42;97636.72;;;8.71;63.42
40992;BME280;29633;49.168;9.848;2023-01-29T15:11:16;97635.69;;;8.59;63.42
40992;BME280;29633;49.168;9.848;2023-01-29T15:14:28;97639.44;;;8.54;63.31
40992;BME280;29633;49.168;9.848;2023-01-29T15:19:46;97629.91;;;8.40;63.21
40992;BME280;29633;49.168;9.848;2023-01-29T15:22:14;97633.13;;;8.29;63.24
40992;BME280;29633;49.168;9.848;2023-01-29T15:24:41;97626.78;;;8.19;63.20
40992;BME280;29633;49.168;9.848;2023-01-29T15:27:19;97628.72;;;8.16;63.28
40992;BME280;29633;49.168;9.848;2023-01-29T15:29:54;97622.31;;;8.07;63.14
40992;BME280;29633;49.168;9.848;2023-01-29T15:32:32;97625.19;;;8.03;62.99
40992;BME280;29633;49.168;9.848;2023-01-29T15:34:59;97615.53;;;7.90;63.17
40992;BME280;29633;49.168;9.848;2023-01-29T15:37:32;97610.06;;;7.81;63.00